TimeMDT,TemperatureF,Dew PointF,Humidity,Sea Level PressureIn,VisibilityMPH,Wind Direction,Wind SpeedMPH,Gust SpeedMPH,PrecipitationIn,Events,Conditions,WindDirDegrees,DateUTC
12:14 AM,24.8,21.2,86,30.40,10.0,South,8.1,-,N/A,,Clear,180,2013-05-03 06:14:00
12:34 AM,24.8,21.2,86,30.39,10.0,South,8.1,-,N/A,,Clear,180,2013-05-03 06:34:00
12:54 AM,24.8,21.2,86,30.39,10.0,South,8.1,-,N/A,,Clear,180,2013-05-03 06:54:00
1:14 AM,26.6,21.2,80,30.38,10.0,SSW,6.9,-,N/A,,Clear,200,2013-05-03 07:14:00
1:33 AM,26.6,19.4,74,30.37,10.0,SSW,6.9,-,N/A,,Clear,200,2013-05-03 07:33:00
1:54 AM,24.8,19.4,80,30.36,10.0,South,6.9,-,N/A,,Clear,190,2013-05-03 07:54:00
2:14 AM,26.6,19.4,74,30.35,10.0,SSW,5.8,-,N/A,,Clear,210,2013-05-03 08:14:00
2:34 AM,26.6,19.4,74,30.34,10.0,SSW,8.1,-,N/A,,Clear,210,2013-05-03 08:34:00
2:54 AM,26.6,19.4,74,30.34,10.0,SSW,6.9,-,N/A,,Clear,210,2013-05-03 08:54:00
3:14 AM,24.8,19.4,80,30.34,10.0,SSW,5.8,-,N/A,,Clear,210,2013-05-03 09:14:00
3:34 AM,26.6,19.4,74,30.33,10.0,SW,9.2,-,N/A,,Clear,220,2013-05-03 09:34:00
3:54 AM,28.4,19.4,69,30.33,10.0,SW,8.1,-,N/A,,Clear,230,2013-05-03 09:54:00
4:14 AM,26.6,19.4,74,30.33,10.0,SW,9.2,-,N/A,,Clear,230,2013-05-03 10:14:00
4:34 AM,28.4,19.4,69,30.32,10.0,WSW,8.1,-,N/A,,Clear,240,2013-05-03 10:34:00
4:54 AM,26.6,19.4,74,30.31,10.0,WSW,8.1,-,N/A,,Clear,240,2013-05-03 10:54:00
5:14 AM,28.4,19.4,69,30.31,10.0,WSW,8.1,-,N/A,,Clear,240,2013-05-03 11:14:00
5:34 AM,28.4,17.6,64,30.30,10.0,WSW,6.9,-,N/A,,Clear,250,2013-05-03 11:34:00
5:54 AM,28.4,17.6,64,30.30,10.0,WSW,5.8,-,N/A,,Clear,250,2013-05-03 11:54:00
6:14 AM,26.6,17.6,69,30.29,10.0,WSW,8.1,-,N/A,,Clear,240,2013-05-03 12:14:00
6:34 AM,28.4,17.6,64,30.29,10.0,WSW,6.9,-,N/A,,Clear,250,2013-05-03 12:34:00
6:54 AM,30.2,19.4,64,30.29,10.0,WSW,5.8,-,N/A,,Clear,250,2013-05-03 12:54:00
7:14 AM,32.0,21.2,64,30.29,10.0,WSW,4.6,-,N/A,,Clear,250,2013-05-03 13:14:00
7:34 AM,35.6,19.4,52,30.29,10.0,West,4.6,-,N/A,,Clear,280,2013-05-03 13:34:00
7:54 AM,37.4,19.4,48,30.28,10.0,West,5.8,-,N/A,,Clear,280,2013-05-03 13:54:00
8:14 AM,39.2,19.4,45,30.28,10.0,WNW,8.1,-,N/A,,Clear,300,2013-05-03 14:14:00
8:34 AM,41.0,17.6,39,30.27,10.0,WNW,8.1,-,N/A,,Clear,300,2013-05-03 14:34:00
8:54 AM,42.8,15.8,34,30.26,10.0,NW,8.1,-,N/A,,Clear,310,2013-05-03 14:54:00
9:14 AM,44.6,15.8,31,30.26,10.0,NW,9.2,-,N/A,,Clear,320,2013-05-03 15:14:00
9:34 AM,44.6,15.8,31,30.25,10.0,NNW,6.9,-,N/A,,Clear,330,2013-05-03 15:34:00
9:54 AM,46.4,15.8,29,30.25,10.0,North,9.2,-,N/A,,Clear,350,2013-05-03 15:54:00
10:14 AM,46.4,15.8,29,30.24,10.0,NNW,10.4,-,N/A,,Clear,330,2013-05-03 16:14:00
10:34 AM,46.4,14.0,27,30.25,10.0,North,16.1,23.0,N/A,,Clear,360,2013-05-03 16:34:00
10:54 AM,46.4,14.0,27,30.24,10.0,North,11.5,19.6,N/A,,Clear,350,2013-05-03 16:54:00
11:14 AM,48.2,14.0,25,30.24,10.0,North,13.8,19.6,N/A,,Clear,350,2013-05-03 17:14:00
11:34 AM,48.2,15.8,27,30.23,10.0,North,9.2,-,N/A,,Clear,350,2013-05-03 17:34:00
11:54 AM,50.0,14.0,24,30.22,10.0,NNW,12.7,16.1,N/A,,Clear,330,2013-05-03 17:54:00
12:14 PM,50.0,17.6,28,30.21,10.0,North,10.4,18.4,N/A,,Clear,360,2013-05-03 18:14:00
12:34 PM,50.0,17.6,28,30.20,10.0,North,11.5,18.4,N/A,,Clear,360,2013-05-03 18:34:00
12:54 PM,50.0,15.8,26,30.20,10.0,North,15.0,21.9,N/A,,Clear,10,2013-05-03 18:54:00
1:14 PM,51.8,17.6,26,30.19,10.0,North,12.7,20.7,N/A,,Clear,350,2013-05-03 19:14:00
1:34 PM,51.8,14.0,22,30.19,10.0,NNW,12.7,-,N/A,,Clear,340,2013-05-03 19:34:00
1:54 PM,51.8,17.6,26,30.18,10.0,NNW,6.9,10.4,N/A,,Clear,340,2013-05-03 19:54:00
2:14 PM,51.8,19.4,28,30.18,10.0,North,12.7,20.7,N/A,,Clear,10,2013-05-03 20:14:00
2:34 PM,51.8,19.4,28,30.17,10.0,North,11.5,20.7,N/A,,Clear,350,2013-05-03 20:34:00
2:54 PM,51.8,19.4,28,30.16,10.0,North,10.4,26.5,N/A,,Clear,350,2013-05-03 20:54:00
3:14 PM,51.8,19.4,28,30.16,10.0,North,10.4,20.7,N/A,,Clear,350,2013-05-03 21:14:00
3:34 PM,51.8,21.2,30,30.15,10.0,NNE,8.1,20.7,N/A,,Clear,30,2013-05-03 21:34:00
3:53 PM,51.8,19.4,28,30.14,10.0,North,12.7,21.9,N/A,,Clear,10,2013-05-03 21:53:00
4:13 PM,51.8,19.4,28,30.14,10.0,NNE,9.2,16.1,N/A,,Clear,20,2013-05-03 22:13:00
4:34 PM,51.8,21.2,30,30.13,10.0,NNE,12.7,16.1,N/A,,Clear,30,2013-05-03 22:34:00
4:54 PM,50.0,19.4,30,30.13,10.0,North,12.7,-,N/A,,Clear,360,2013-05-03 22:54:00
5:14 PM,50.0,21.2,32,30.13,10.0,NNE,10.4,17.3,N/A,,Clear,30,2013-05-03 23:14:00
5:34 PM,50.0,21.2,32,30.13,10.0,NNE,11.5,-,N/A,,Clear,30,2013-05-03 23:34:00
5:54 PM,50.0,21.2,32,30.13,10.0,NNE,9.2,-,N/A,,Clear,20,2013-05-03 23:54:00
6:14 PM,50.0,21.2,32,30.13,10.0,NNE,12.7,16.1,N/A,,Clear,30,2013-05-04 00:14:00
6:34 PM,48.2,21.2,34,30.13,10.0,NNE,10.4,-,N/A,,Clear,20,2013-05-04 00:34:00
6:54 PM,48.2,21.2,34,30.14,10.0,NE,8.1,-,N/A,,Clear,50,2013-05-04 00:54:00
7:14 PM,44.6,23.0,43,30.14,10.0,NE,9.2,-,N/A,,Clear,40,2013-05-04 01:14:00
7:34 PM,42.8,23.0,46,30.15,10.0,NE,6.9,-,N/A,,Clear,50,2013-05-04 01:34:00
7:54 PM,42.8,23.0,46,30.15,10.0,NE,5.8,-,N/A,,Clear,50,2013-05-04 01:54:00
8:14 PM,41.0,23.0,49,30.15,10.0,NE,6.9,-,N/A,,Clear,40,2013-05-04 02:14:00
8:34 PM,39.2,23.0,52,30.15,10.0,NE,4.6,-,N/A,,Clear,40,2013-05-04 02:34:00
8:54 PM,39.2,23.0,52,30.15,10.0,NE,5.8,-,N/A,,Clear,50,2013-05-04 02:54:00
9:14 PM,39.2,21.2,49,30.16,10.0,NE,4.6,-,N/A,,Clear,50,2013-05-04 03:14:00
9:34 PM,39.2,19.4,45,30.16,10.0,NE,5.8,-,N/A,,Clear,40,2013-05-04 03:34:00
9:53 PM,37.4,19.4,48,30.17,10.0,NE,4.6,-,N/A,,Clear,50,2013-05-04 03:53:00
10:14 PM,37.4,21.2,52,30.17,10.0,ENE,3.5,-,N/A,,Clear,70,2013-05-04 04:14:00
10:34 PM,37.4,21.2,52,30.17,10.0,SSE,4.6,-,N/A,,Clear,150,2013-05-04 04:34:00
10:53 PM,33.8,23.0,65,30.16,10.0,South,4.6,-,N/A,,Clear,170,2013-05-04 04:53:00
11:14 PM,32.0,23.0,69,30.16,10.0,South,3.5,-,N/A,,Clear,190,2013-05-04 05:14:00
11:34 PM,32.0,23.0,69,30.16,10.0,South,5.8,-,N/A,,Clear,190,2013-05-04 05:34:00
11:54 PM,30.2,23.0,75,30.16,10.0,South,8.1,-,N/A,,Clear,180,2013-05-04 05:54:00